Portada
METAR-TAF:

METAR-TAF

Aeroports :

Maré, Nova Caledònia

latitud: 21-28-53S, longitud: 168-02-15E, altitud: 42 m

METAR: manca

Hora: 02:36 (15:36 UTC)

Pronòstic

L'informe es va fer fa 4 hores i 36 minuts, a les 11:00 UTC
Pronòstic vàlid del 25 a les 12 UTC al 26 a les 12 UTC
Vent 2 kt amb direcció variable
Visibilitat 10 km o més
Escasses núvols a una alçada de 2500 ft
Cel ennuvolat a una alçada de 6000 ft
Temporalment
l' 25 a les 12 UTC al 25 a les 18 UTC
Cel ennuvolat a una alçada de 1400 ft
xàfecs de pluja
Evolucionant progressivament
l' 25 a les 18 UTC al 25 a les 21 UTC
Vent 10 kt del Est/Sud-Est

TAF: NWWR 251100Z 2512/2612 VRB02KT 9999 FEW025 BKN060 TEMPO 2512/2518 SHRA BKN014 BECMG 2518/2521 12010KT

Observacions i pronòstics meteorològics de més de 4000 aeroports (METAR i TAF).

Les estacions disponibles són els punts grocs i vermells al mapa.

Posi el ratolí al punt desitjat per veure el nom de l'estació.

Feu clic per veure les observacions i els pronòstics meteorològics.

Per canviar el mapa: feu clic els botons verds amb una creu de color negre per apropar; al botó verd amb un guió per allunyar la imatge; o en les fletxes verdes per a mapes adjacents.


METAR-TAF: